Middleton, Utah
Current Conditions -  °F | °C
As of 10:35 AM on Thursday 27 Nov 2014 (Local Time) from KSGU Reporting Station
Clear Clear  
Wind Chill: 45°   Ceiling: Unl
Heat Index: 45°   Visibility: 10mi
Dew Point: 18°   Wind: 0mph
Humidity: 34%   Direction: NA
Pressure: 30.41"   Gusts: NA
Location:  37.1317°N, 113.795°W
Report Text: KSGU 271735Z AUTO 00000KT 10SM CLR 07/M08 A3041 RMK AO1
Loading
Personal Weather Stations






























Interactive Weather Map New forecast layout! Learn more

10-Day Weather Forecast

Advertisements
Track Severe Weather on mobile